sensor_id;sensor_type;location;lat;lon;timestamp;P1;durP1;ratioP1;P2;durP2;ratioP2
18125;SDS011;53956;52.442;13.284;2022-11-11T00:00:06;11.37;;;3.87;;
18125;SDS011;53956;52.442;13.284;2022-11-11T00:02:53;9.13;;;3.87;;
18125;SDS011;53956;52.442;13.284;2022-11-11T00:05:39;12.50;;;4.10;;
18125;SDS011;53956;52.442;13.284;2022-11-11T00:08:24;8.03;;;3.87;;
18125;SDS011;53956;52.442;13.284;2022-11-11T00:11:11;12.13;;;4.30;;
18125;SDS011;53956;52.442;13.284;2022-11-11T00:13:59;10.90;;;4.10;;
18125;SDS011;53956;52.442;13.284;2022-11-11T00:16:44;10.73;;;4.10;;
18125;SDS011;53956;52.442;13.284;2022-11-11T00:19:47;15.80;;;4.40;;
18125;SDS011;53956;52.442;13.284;2022-11-11T00:22:50;11.87;;;4.10;;
18125;SDS011;53956;52.442;13.284;2022-11-11T00:25:53;11.83;;;4.47;;
18125;SDS011;53956;52.442;13.284;2022-11-11T00:28:39;10.53;;;4.37;;
18125;SDS011;53956;52.442;13.284;2022-11-11T00:31:27;9.70;;;4.00;;
18125;SDS011;53956;52.442;13.284;2022-11-11T00:34:12;7.57;;;4.20;;
18125;SDS011;53956;52.442;13.284;2022-11-11T00:36:58;11.83;;;4.33;;
18125;SDS011;53956;52.442;13.284;2022-11-11T00:39:42;11.63;;;4.17;;
18125;SDS011;53956;52.442;13.284;2022-11-11T00:42:29;8.67;;;4.10;;
18125;SDS011;53956;52.442;13.284;2022-11-11T00:45:15;12.83;;;4.70;;
18125;SDS011;53956;52.442;13.284;2022-11-11T00:48:02;11.50;;;4.30;;
18125;SDS011;53956;52.442;13.284;2022-11-11T00:51:05;11.20;;;4.40;;
18125;SDS011;53956;52.442;13.284;2022-11-11T00:53:51;11.50;;;4.17;;
18125;SDS011;53956;52.442;13.284;2022-11-11T00:56:37;12.60;;;4.83;;
18125;SDS011;53956;52.442;13.284;2022-11-11T00:59:22;10.50;;;4.27;;
18125;SDS011;53956;52.442;13.284;2022-11-11T01:02:08;9.20;;;4.17;;
18125;SDS011;53956;52.442;13.284;2022-11-11T01:04:55;10.83;;;4.10;;
18125;SDS011;53956;52.442;13.284;2022-11-11T01:07:40;11.27;;;4.53;;
18125;SDS011;53956;52.442;13.284;2022-11-11T01:10:25;8.93;;;4.10;;
18125;SDS011;53956;52.442;13.284;2022-11-11T01:13:24;7.93;;;4.20;;
18125;SDS011;53956;52.442;13.284;2022-11-11T01:16:11;14.17;;;4.37;;
18125;SDS011;53956;52.442;13.284;2022-11-11T01:18:58;10.37;;;4.50;;
18125;SDS011;53956;52.442;13.284;2022-11-11T01:21:45;13.03;;;5.03;;
18125;SDS011;53956;52.442;13.284;2022-11-11T01:24:30;11.40;;;4.43;;
18125;SDS011;53956;52.442;13.284;2022-11-11T01:27:16;9.73;;;4.30;;
18125;SDS011;53956;52.442;13.284;2022-11-11T01:30:02;8.40;;;4.37;;
18125;SDS011;53956;52.442;13.284;2022-11-11T01:32:47;10.63;;;4.17;;
18125;SDS011;53956;52.442;13.284;2022-11-11T01:35:36;7.97;;;4.50;;
18125;SDS011;53956;52.442;13.284;2022-11-11T01:38:24;9.70;;;4.17;;
18125;SDS011;53956;52.442;13.284;2022-11-11T01:41:10;9.17;;;4.80;;
18125;SDS011;53956;52.442;13.284;2022-11-11T01:44:37;13.13;;;4.80;;
18125;SDS011;53956;52.442;13.284;2022-11-11T01:47:28;8.83;;;4.23;;
18125;SDS011;53956;52.442;13.284;2022-11-11T01:50:35;8.67;;;4.53;;
18125;SDS011;53956;52.442;13.284;2022-11-11T01:53:19;8.47;;;4.23;;
18125;SDS011;53956;52.442;13.284;2022-11-11T01:56:05;9.00;;;4.23;;
18125;SDS011;53956;52.442;13.284;2022-11-11T01:58:53;12.47;;;5.03;;
18125;SDS011;53956;52.442;13.284;2022-11-11T02:01:42;12.40;;;4.87;;
18125;SDS011;53956;52.442;13.284;2022-11-11T02:04:28;10.50;;;4.83;;
18125;SDS011;53956;52.442;13.284;2022-11-11T02:07:32;14.80;;;5.13;;
18125;SDS011;53956;52.442;13.284;2022-11-11T02:10:19;9.63;;;4.50;;
18125;SDS011;53956;52.442;13.284;2022-11-11T02:13:09;12.17;;;4.87;;
18125;SDS011;53956;52.442;13.284;2022-11-11T02:16:14;12.80;;;4.50;;
18125;SDS011;53956;52.442;13.284;2022-11-11T02:19:02;11.77;;;4.77;;
18125;SDS011;53956;52.442;13.284;2022-11-11T02:21:49;12.90;;;4.80;;
18125;SDS011;53956;52.442;13.284;2022-11-11T02:24:40;11.23;;;4.83;;
18125;SDS011;53956;52.442;13.284;2022-11-11T02:27:26;12.80;;;4.73;;
18125;SDS011;53956;52.442;13.284;2022-11-11T02:30:15;10.37;;;4.67;;
18125;SDS011;53956;52.442;13.284;2022-11-11T02:33:02;10.13;;;4.70;;
18125;SDS011;53956;52.442;13.284;2022-11-11T02:35:48;9.40;;;4.47;;
18125;SDS011;53956;52.442;13.284;2022-11-11T02:38:39;11.47;;;4.90;;
18125;SDS011;53956;52.442;13.284;2022-11-11T02:41:26;9.50;;;4.70;;
18125;SDS011;53956;52.442;13.284;2022-11-11T02:44:29;10.07;;;4.73;;
18125;SDS011;53956;52.442;13.284;2022-11-11T02:47:15;14.13;;;4.77;;
18125;SDS011;53956;52.442;13.284;2022-11-11T02:50:00;9.17;;;4.80;;
18125;SDS011;53956;52.442;13.284;2022-11-11T02:52:46;13.97;;;4.80;;
18125;SDS011;53956;52.442;13.284;2022-11-11T02:55:31;9.27;;;5.00;;
18125;SDS011;53956;52.442;13.284;2022-11-11T02:58:18;11.77;;;4.73;;
18125;SDS011;53956;52.442;13.284;2022-11-11T03:01:04;8.23;;;4.63;;
18125;SDS011;53956;52.442;13.284;2022-11-11T03:03:49;12.17;;;5.00;;
18125;SDS011;53956;52.442;13.284;2022-11-11T03:06:35;12.37;;;4.63;;
18125;SDS011;53956;52.442;13.284;2022-11-11T03:09:20;10.97;;;4.83;;
18125;SDS011;53956;52.442;13.284;2022-11-11T03:12:06;9.80;;;4.67;;
18125;SDS011;53956;52.442;13.284;2022-11-11T03:14:53;10.03;;;4.63;;
18125;SDS011;53956;52.442;13.284;2022-11-11T03:17:38;11.37;;;4.93;;
18125;SDS011;53956;52.442;13.284;2022-11-11T03:20:23;11.47;;;4.50;;
18125;SDS011;53956;52.442;13.284;2022-11-11T03:23:26;11.50;;;4.47;;
18125;SDS011;53956;52.442;13.284;2022-11-11T03:26:11;10.50;;;4.97;;
18125;SDS011;53956;52.442;13.284;2022-11-11T03:28:56;11.07;;;4.97;;
18125;SDS011;53956;52.442;13.284;2022-11-11T03:31:43;10.83;;;5.10;;
18125;SDS011;53956;52.442;13.284;2022-11-11T03:34:28;13.57;;;5.23;;
18125;SDS011;53956;52.442;13.284;2022-11-11T03:37:14;12.37;;;4.90;;
18125;SDS011;53956;52.442;13.284;2022-11-11T03:40:17;14.43;;;5.23;;
18125;SDS011;53956;52.442;13.284;2022-11-11T03:43:02;12.70;;;4.70;;
18125;SDS011;53956;52.442;13.284;2022-11-11T03:45:47;10.93;;;4.87;;
18125;SDS011;53956;52.442;13.284;2022-11-11T03:48:35;9.33;;;4.70;;
18125;SDS011;53956;52.442;13.284;2022-11-11T03:51:21;9.93;;;4.73;;
18125;SDS011;53956;52.442;13.284;2022-11-11T03:54:06;11.37;;;5.13;;
18125;SDS011;53956;52.442;13.284;2022-11-11T03:56:52;11.27;;;4.90;;
18125;SDS011;53956;52.442;13.284;2022-11-11T03:59:59;12.07;;;5.17;;
18125;SDS011;53956;52.442;13.284;2022-11-11T04:02:44;12.40;;;5.57;;
18125;SDS011;53956;52.442;13.284;2022-11-11T04:05:49;10.60;;;4.77;;
18125;SDS011;53956;52.442;13.284;2022-11-11T04:08:52;14.23;;;5.00;;
18125;SDS011;53956;52.442;13.284;2022-11-11T04:11:55;8.43;;;4.93;;
18125;SDS011;53956;52.442;13.284;2022-11-11T04:14:41;10.93;;;5.30;;
18125;SDS011;53956;52.442;13.284;2022-11-11T04:17:44;13.00;;;5.07;;
18125;SDS011;53956;52.442;13.284;2022-11-11T04:20:29;10.67;;;5.07;;
18125;SDS011;53956;52.442;13.284;2022-11-11T04:23:34;11.33;;;5.10;;
18125;SDS011;53956;52.442;13.284;2022-11-11T04:26:19;12.37;;;5.07;;
18125;SDS011;53956;52.442;13.284;2022-11-11T04:29:04;14.97;;;5.60;;
18125;SDS011;53956;52.442;13.284;2022-11-11T04:32:07;9.57;;;5.17;;
18125;SDS011;53956;52.442;13.284;2022-11-11T04:35:12;10.57;;;5.10;;
18125;SDS011;53956;52.442;13.284;2022-11-11T04:37:57;15.03;;;5.40;;
18125;SDS011;53956;52.442;13.284;2022-11-11T04:40:58;11.00;;;4.73;;
18125;SDS011;53956;52.442;13.284;2022-11-11T04:43:51;9.63;;;5.20;;
18125;SDS011;53956;52.442;13.284;2022-11-11T04:46:54;13.93;;;4.87;;
18125;SDS011;53956;52.442;13.284;2022-11-11T04:49:40;9.83;;;4.90;;
18125;SDS011;53956;52.442;13.284;2022-11-11T04:52:25;9.43;;;4.97;;
18125;SDS011;53956;52.442;13.284;2022-11-11T04:55:11;13.83;;;4.97;;
18125;SDS011;53956;52.442;13.284;2022-11-11T04:58:17;8.03;;;4.70;;
18125;SDS011;53956;52.442;13.284;2022-11-11T05:01:03;10.77;;;4.97;;
18125;SDS011;53956;52.442;13.284;2022-11-11T05:03:49;11.17;;;4.97;;
18125;SDS011;53956;52.442;13.284;2022-11-11T05:06:33;10.03;;;4.90;;
18125;SDS011;53956;52.442;13.284;2022-11-11T05:09:36;14.27;;;5.10;;
18125;SDS011;53956;52.442;13.284;2022-11-11T05:12:22;9.00;;;4.90;;
18125;SDS011;53956;52.442;13.284;2022-11-11T05:15:09;10.13;;;4.80;;
18125;SDS011;53956;52.442;13.284;2022-11-11T05:18:13;13.53;;;5.20;;
18125;SDS011;53956;52.442;13.284;2022-11-11T05:21:17;13.03;;;5.20;;
18125;SDS011;53956;52.442;13.284;2022-11-11T05:24:05;10.17;;;5.20;;
18125;SDS011;53956;52.442;13.284;2022-11-11T05:27:19;8.57;;;4.63;;
18125;SDS011;53956;52.442;13.284;2022-11-11T05:30:05;10.13;;;5.00;;
18125;SDS011;53956;52.442;13.284;2022-11-11T05:32:54;10.27;;;4.73;;
18125;SDS011;53956;52.442;13.284;2022-11-11T05:35:39;11.23;;;5.07;;
18125;SDS011;53956;52.442;13.284;2022-11-11T05:38:25;11.93;;;5.07;;
18125;SDS011;53956;52.442;13.284;2022-11-11T05:41:12;9.93;;;4.63;;
18125;SDS011;53956;52.442;13.284;2022-11-11T05:43:58;14.37;;;4.87;;
18125;SDS011;53956;52.442;13.284;2022-11-11T05:46:43;12.77;;;5.13;;
18125;SDS011;53956;52.442;13.284;2022-11-11T05:49:30;10.13;;;5.00;;
18125;SDS011;53956;52.442;13.284;2022-11-11T05:52:16;10.17;;;4.90;;
18125;SDS011;53956;52.442;13.284;2022-11-11T05:55:02;9.93;;;5.10;;
18125;SDS011;53956;52.442;13.284;2022-11-11T05:57:48;8.67;;;4.73;;
18125;SDS011;53956;52.442;13.284;2022-11-11T06:00:33;13.90;;;4.67;;
18125;SDS011;53956;52.442;13.284;2022-11-11T06:03:19;10.93;;;4.57;;
18125;SDS011;53956;52.442;13.284;2022-11-11T06:06:06;10.50;;;4.93;;
18125;SDS011;53956;52.442;13.284;2022-11-11T06:08:51;9.77;;;5.17;;
18125;SDS011;53956;52.442;13.284;2022-11-11T06:11:36;9.27;;;5.27;;
18125;SDS011;53956;52.442;13.284;2022-11-11T06:14:22;12.23;;;5.63;;
18125;SDS011;53956;52.442;13.284;2022-11-11T06:17:08;9.10;;;5.07;;
18125;SDS011;53956;52.442;13.284;2022-11-11T06:19:53;12.70;;;5.70;;
18125;SDS011;53956;52.442;13.284;2022-11-11T06:22:40;11.07;;;5.30;;
18125;SDS011;53956;52.442;13.284;2022-11-11T06:25:40;10.27;;;5.10;;
18125;SDS011;53956;52.442;13.284;2022-11-11T06:28:44;10.33;;;4.97;;
18125;SDS011;53956;52.442;13.284;2022-11-11T06:31:31;13.43;;;5.30;;
18125;SDS011;53956;52.442;13.284;2022-11-11T06:34:16;12.13;;;6.10;;
18125;SDS011;53956;52.442;13.284;2022-11-11T06:37:02;14.20;;;5.50;;
18125;SDS011;53956;52.442;13.284;2022-11-11T06:39:49;15.03;;;6.10;;
18125;SDS011;53956;52.442;13.284;2022-11-11T06:42:35;12.50;;;5.77;;
18125;SDS011;53956;52.442;13.284;2022-11-11T06:45:20;10.77;;;5.07;;
18125;SDS011;53956;52.442;13.284;2022-11-11T06:48:06;10.93;;;5.47;;
18125;SDS011;53956;52.442;13.284;2022-11-11T06:50:51;10.53;;;5.50;;
18125;SDS011;53956;52.442;13.284;2022-11-11T06:53:37;14.40;;;6.10;;
18125;SDS011;53956;52.442;13.284;2022-11-11T06:56:24;11.20;;;5.10;;
18125;SDS011;53956;52.442;13.284;2022-11-11T06:59:10;10.33;;;5.40;;
18125;SDS011;53956;52.442;13.284;2022-11-11T07:01:55;10.50;;;5.60;;
18125;SDS011;53956;52.442;13.284;2022-11-11T07:04:41;13.83;;;5.83;;
18125;SDS011;53956;52.442;13.284;2022-11-11T07:07:26;8.10;;;5.27;;
18125;SDS011;53956;52.442;13.284;2022-11-11T07:10:12;11.93;;;4.93;;
18125;SDS011;53956;52.442;13.284;2022-11-11T07:13:00;12.47;;;5.57;;
18125;SDS011;53956;52.442;13.284;2022-11-11T07:15:45;14.20;;;5.80;;
18125;SDS011;53956;52.442;13.284;2022-11-11T07:18:31;10.83;;;5.80;;
18125;SDS011;53956;52.442;13.284;2022-11-11T07:21:17;15.03;;;5.70;;
18125;SDS011;53956;52.442;13.284;2022-11-11T07:24:02;11.03;;;5.60;;
18125;SDS011;53956;52.442;13.284;2022-11-11T07:26:48;12.70;;;5.53;;
18125;SDS011;53956;52.442;13.284;2022-11-11T07:29:34;12.83;;;5.60;;
18125;SDS011;53956;52.442;13.284;2022-11-11T07:32:20;10.10;;;5.13;;
18125;SDS011;53956;52.442;13.284;2022-11-11T07:35:06;11.33;;;5.37;;
18125;SDS011;53956;52.442;13.284;2022-11-11T07:37:52;8.17;;;4.90;;
18125;SDS011;53956;52.442;13.284;2022-11-11T07:40:38;12.87;;;5.27;;
18125;SDS011;53956;52.442;13.284;2022-11-11T07:43:23;10.27;;;5.20;;
18125;SDS011;53956;52.442;13.284;2022-11-11T07:46:10;12.90;;;5.30;;
18125;SDS011;53956;52.442;13.284;2022-11-11T07:48:56;9.90;;;5.27;;
18125;SDS011;53956;52.442;13.284;2022-11-11T07:51:41;10.20;;;5.17;;
18125;SDS011;53956;52.442;13.284;2022-11-11T07:54:26;15.53;;;4.97;;
18125;SDS011;53956;52.442;13.284;2022-11-11T07:57:12;11.87;;;4.70;;
18125;SDS011;53956;52.442;13.284;2022-11-11T07:59:57;12.40;;;5.03;;
18125;SDS011;53956;52.442;13.284;2022-11-11T08:02:46;11.00;;;4.90;;
18125;SDS011;53956;52.442;13.284;2022-11-11T08:05:32;11.07;;;4.97;;
18125;SDS011;53956;52.442;13.284;2022-11-11T08:08:17;10.03;;;5.00;;
18125;SDS011;53956;52.442;13.284;2022-11-11T08:11:07;9.80;;;5.10;;
18125;SDS011;53956;52.442;13.284;2022-11-11T08:13:53;11.23;;;5.27;;
18125;SDS011;53956;52.442;13.284;2022-11-11T08:16:37;8.67;;;5.10;;
18125;SDS011;53956;52.442;13.284;2022-11-11T08:19:24;12.20;;;5.27;;
18125;SDS011;53956;52.442;13.284;2022-11-11T08:22:09;10.00;;;4.80;;
18125;SDS011;53956;52.442;13.284;2022-11-11T08:24:55;10.73;;;4.67;;
18125;SDS011;53956;52.442;13.284;2022-11-11T08:27:41;10.67;;;5.10;;
18125;SDS011;53956;52.442;13.284;2022-11-11T08:30:26;9.93;;;5.00;;
18125;SDS011;53956;52.442;13.284;2022-11-11T08:33:12;10.67;;;4.87;;
18125;SDS011;53956;52.442;13.284;2022-11-11T08:35:58;11.83;;;5.17;;
18125;SDS011;53956;52.442;13.284;2022-11-11T08:38:44;11.23;;;5.07;;
18125;SDS011;53956;52.442;13.284;2022-11-11T08:41:30;14.23;;;5.87;;
18125;SDS011;53956;52.442;13.284;2022-11-11T08:44:15;12.43;;;5.33;;
18125;SDS011;53956;52.442;13.284;2022-11-11T08:47:01;9.97;;;4.73;;
18125;SDS011;53956;52.442;13.284;2022-11-11T08:49:47;11.10;;;5.07;;
18125;SDS011;53956;52.442;13.284;2022-11-11T08:52:34;11.80;;;5.23;;
18125;SDS011;53956;52.442;13.284;2022-11-11T08:55:20;13.93;;;5.53;;
18125;SDS011;53956;52.442;13.284;2022-11-11T08:58:05;14.03;;;5.23;;
18125;SDS011;53956;52.442;13.284;2022-11-11T09:00:51;8.27;;;5.07;;
18125;SDS011;53956;52.442;13.284;2022-11-11T09:03:36;20.93;;;5.77;;
18125;SDS011;53956;52.442;13.284;2022-11-11T09:06:22;15.70;;;4.93;;
18125;SDS011;53956;52.442;13.284;2022-11-11T09:09:09;10.93;;;4.83;;
18125;SDS011;53956;52.442;13.284;2022-11-11T09:11:54;11.53;;;4.50;;
18125;SDS011;53956;52.442;13.284;2022-11-11T09:14:40;10.77;;;4.97;;
18125;SDS011;53956;52.442;13.284;2022-11-11T09:17:25;11.17;;;4.80;;
18125;SDS011;53956;52.442;13.284;2022-11-11T09:20:11;9.80;;;5.00;;
18125;SDS011;53956;52.442;13.284;2022-11-11T09:22:57;10.83;;;4.87;;
18125;SDS011;53956;52.442;13.284;2022-11-11T09:25:43;12.53;;;5.10;;
18125;SDS011;53956;52.442;13.284;2022-11-11T09:28:29;8.83;;;4.33;;
18125;SDS011;53956;52.442;13.284;2022-11-11T09:31:16;10.90;;;4.60;;
18125;SDS011;53956;52.442;13.284;2022-11-11T09:34:01;9.17;;;4.30;;
18125;SDS011;53956;52.442;13.284;2022-11-11T09:36:49;9.77;;;4.27;;
18125;SDS011;53956;52.442;13.284;2022-11-11T09:39:34;12.13;;;4.47;;
18125;SDS011;53956;52.442;13.284;2022-11-11T09:42:26;10.93;;;4.63;;
18125;SDS011;53956;52.442;13.284;2022-11-11T09:45:18;7.57;;;4.27;;
18125;SDS011;53956;52.442;13.284;2022-11-11T09:48:15;11.77;;;4.83;;
18125;SDS011;53956;52.442;13.284;2022-11-11T09:51:17;9.50;;;3.80;;
18125;SDS011;53956;52.442;13.284;2022-11-11T09:54:08;10.50;;;4.67;;
18125;SDS011;53956;52.442;13.284;2022-11-11T09:56:58;8.33;;;4.20;;
18125;SDS011;53956;52.442;13.284;2022-11-11T09:59:48;8.10;;;4.20;;
18125;SDS011;53956;52.442;13.284;2022-11-11T10:02:38;11.73;;;4.70;;
18125;SDS011;53956;52.442;13.284;2022-11-11T10:05:29;10.30;;;4.10;;
18125;SDS011;53956;52.442;13.284;2022-11-11T10:08:21;8.83;;;4.00;;
18125;SDS011;53956;52.442;13.284;2022-11-11T10:11:11;8.87;;;3.97;;
18125;SDS011;53956;52.442;13.284;2022-11-11T10:14:02;7.83;;;3.70;;
18125;SDS011;53956;52.442;13.284;2022-11-11T10:16:52;11.50;;;4.00;;
18125;SDS011;53956;52.442;13.284;2022-11-11T10:19:48;10.90;;;3.90;;
18125;SDS011;53956;52.442;13.284;2022-11-11T10:22:41;8.30;;;3.77;;
18125;SDS011;53956;52.442;13.284;2022-11-11T10:25:27;9.73;;;4.00;;
18125;SDS011;53956;52.442;13.284;2022-11-11T10:28:14;5.90;;;3.37;;
18125;SDS011;53956;52.442;13.284;2022-11-11T10:31:04;6.73;;;3.50;;
18125;SDS011;53956;52.442;13.284;2022-11-11T10:34:00;7.60;;;3.57;;
18125;SDS011;53956;52.442;13.284;2022-11-11T10:36:50;6.67;;;3.40;;
18125;SDS011;53956;52.442;13.284;2022-11-11T10:39:43;8.10;;;3.43;;
18125;SDS011;53956;52.442;13.284;2022-11-11T10:42:35;5.63;;;3.60;;
18125;SDS011;53956;52.442;13.284;2022-11-11T10:45:22;9.97;;;3.93;;
18125;SDS011;53956;52.442;13.284;2022-11-11T10:48:11;7.30;;;3.60;;
18125;SDS011;53956;52.442;13.284;2022-11-11T10:51:02;7.97;;;3.83;;
18125;SDS011;53956;52.442;13.284;2022-11-11T10:53:52;8.10;;;3.50;;
18125;SDS011;53956;52.442;13.284;2022-11-11T10:56:47;5.43;;;3.50;;
18125;SDS011;53956;52.442;13.284;2022-11-11T10:59:38;9.40;;;3.60;;
18125;SDS011;53956;52.442;13.284;2022-11-11T11:02:33;9.80;;;3.63;;
18125;SDS011;53956;52.442;13.284;2022-11-11T11:05:26;8.40;;;3.67;;
18125;SDS011;53956;52.442;13.284;2022-11-11T11:08:19;14.40;;;4.67;;
18125;SDS011;53956;52.442;13.284;2022-11-11T11:11:08;10.47;;;4.57;;
18125;SDS011;53956;52.442;13.284;2022-11-11T11:14:00;8.10;;;4.03;;
18125;SDS011;53956;52.442;13.284;2022-11-11T11:16:50;7.67;;;3.50;;
18125;SDS011;53956;52.442;13.284;2022-11-11T11:19:38;7.63;;;3.90;;
18125;SDS011;53956;52.442;13.284;2022-11-11T11:22:26;10.17;;;3.67;;
18125;SDS011;53956;52.442;13.284;2022-11-11T11:25:31;14.47;;;5.17;;
18125;SDS011;53956;52.442;13.284;2022-11-11T11:28:17;10.23;;;3.50;;
18125;SDS011;53956;52.442;13.284;2022-11-11T11:31:03;10.93;;;4.30;;
18125;SDS011;53956;52.442;13.284;2022-11-11T11:33:52;8.57;;;3.50;;
18125;SDS011;53956;52.442;13.284;2022-11-11T11:36:38;8.20;;;3.67;;
18125;SDS011;53956;52.442;13.284;2022-11-11T11:39:30;9.43;;;3.20;;
18125;SDS011;53956;52.442;13.284;2022-11-11T11:42:28;9.70;;;3.67;;
18125;SDS011;53956;52.442;13.284;2022-11-11T11:45:16;7.23;;;3.33;;
18125;SDS011;53956;52.442;13.284;2022-11-11T11:48:09;6.90;;;3.20;;
18125;SDS011;53956;52.442;13.284;2022-11-11T11:51:08;7.77;;;3.40;;
18125;SDS011;53956;52.442;13.284;2022-11-11T11:54:04;7.70;;;3.30;;
18125;SDS011;53956;52.442;13.284;2022-11-11T11:57:02;17.97;;;9.80;;
18125;SDS011;53956;52.442;13.284;2022-11-11T12:00:01;28.80;;;15.93;;
18125;SDS011;53956;52.442;13.284;2022-11-11T12:03:04;48.53;;;22.87;;
18125;SDS011;53956;52.442;13.284;2022-11-11T12:06:01;31.93;;;10.67;;
18125;SDS011;53956;52.442;13.284;2022-11-11T12:08:57;30.63;;;16.23;;
18125;SDS011;53956;52.442;13.284;2022-11-11T12:11:51;18.80;;;9.20;;
18125;SDS011;53956;52.442;13.284;2022-11-11T12:14:44;21.70;;;10.93;;
18125;SDS011;53956;52.442;13.284;2022-11-11T12:17:43;17.40;;;8.97;;
18125;SDS011;53956;52.442;13.284;2022-11-11T12:20:39;22.30;;;11.70;;
18125;SDS011;53956;52.442;13.284;2022-11-11T12:26:45;6.13;;;3.17;;
18125;SDS011;53956;52.442;13.284;2022-11-11T12:29:44;7.80;;;3.00;;
18125;SDS011;53956;52.442;13.284;2022-11-11T12:32:47;4.90;;;2.90;;
18125;SDS011;53956;52.442;13.284;2022-11-11T12:35:55;7.83;;;3.27;;
18125;SDS011;53956;52.442;13.284;2022-11-11T12:38:53;8.30;;;4.40;;
18125;SDS011;53956;52.442;13.284;2022-11-11T12:41:44;8.63;;;5.33;;
18125;SDS011;53956;52.442;13.284;2022-11-11T12:44:40;6.37;;;2.90;;
18125;SDS011;53956;52.442;13.284;2022-11-11T12:47:35;6.83;;;3.30;;
18125;SDS011;53956;52.442;13.284;2022-11-11T12:50:28;6.43;;;2.97;;
18125;SDS011;53956;52.442;13.284;2022-11-11T12:53:23;8.10;;;3.10;;
18125;SDS011;53956;52.442;13.284;2022-11-11T12:56:19;4.40;;;2.80;;
18125;SDS011;53956;52.442;13.284;2022-11-11T12:59:14;6.70;;;3.00;;
18125;SDS011;53956;52.442;13.284;2022-11-11T13:02:11;6.53;;;3.00;;
18125;SDS011;53956;52.442;13.284;2022-11-11T13:05:10;4.53;;;2.93;;
18125;SDS011;53956;52.442;13.284;2022-11-11T13:08:12;5.90;;;2.70;;
18125;SDS011;53956;52.442;13.284;2022-11-11T13:11:19;6.83;;;3.10;;
18125;SDS011;53956;52.442;13.284;2022-11-11T13:14:19;10.30;;;2.90;;
18125;SDS011;53956;52.442;13.284;2022-11-11T13:17:15;7.17;;;2.90;;
18125;SDS011;53956;52.442;13.284;2022-11-11T13:20:01;6.77;;;3.07;;
18125;SDS011;53956;52.442;13.284;2022-11-11T13:22:55;5.40;;;3.33;;
18125;SDS011;53956;52.442;13.284;2022-11-11T13:25:45;4.60;;;2.90;;
18125;SDS011;53956;52.442;13.284;2022-11-11T13:28:33;8.10;;;3.43;;
18125;SDS011;53956;52.442;13.284;2022-11-11T13:31:23;7.30;;;2.97;;
18125;SDS011;53956;52.442;13.284;2022-11-11T13:34:15;7.20;;;2.80;;
18125;SDS011;53956;52.442;13.284;2022-11-11T13:37:03;6.30;;;3.20;;
18125;SDS011;53956;52.442;13.284;2022-11-11T13:39:51;6.47;;;3.30;;
18125;SDS011;53956;52.442;13.284;2022-11-11T13:42:41;7.47;;;3.33;;
18125;SDS011;53956;52.442;13.284;2022-11-11T13:45:34;5.97;;;3.17;;
18125;SDS011;53956;52.442;13.284;2022-11-11T13:48:24;6.90;;;3.30;;
18125;SDS011;53956;52.442;13.284;2022-11-11T13:51:13;7.20;;;3.13;;
18125;SDS011;53956;52.442;13.284;2022-11-11T13:54:07;8.83;;;3.50;;
18125;SDS011;53956;52.442;13.284;2022-11-11T13:57:06;6.33;;;3.17;;
18125;SDS011;53956;52.442;13.284;2022-11-11T14:00:03;8.47;;;3.30;;
18125;SDS011;53956;52.442;13.284;2022-11-11T14:06:27;8.73;;;3.53;;
18125;SDS011;53956;52.442;13.284;2022-11-11T14:12:37;6.13;;;3.33;;
18125;SDS011;53956;52.442;13.284;2022-11-11T14:15:35;9.23;;;3.50;;
18125;SDS011;53956;52.442;13.284;2022-11-11T14:18:35;7.97;;;3.20;;
18125;SDS011;53956;52.442;13.284;2022-11-11T14:21:41;8.20;;;3.20;;
18125;SDS011;53956;52.442;13.284;2022-11-11T14:24:33;4.67;;;2.90;;
18125;SDS011;53956;52.442;13.284;2022-11-11T14:27:21;8.77;;;3.57;;
18125;SDS011;53956;52.442;13.284;2022-11-11T14:30:11;6.10;;;3.40;;
18125;SDS011;53956;52.442;13.284;2022-11-11T14:33:14;6.70;;;3.30;;
18125;SDS011;53956;52.442;13.284;2022-11-11T14:36:18;6.63;;;3.40;;
18125;SDS011;53956;52.442;13.284;2022-11-11T14:39:11;5.40;;;3.10;;
18125;SDS011;53956;52.442;13.284;2022-11-11T14:48:52;8.70;;;3.70;;
18125;SDS011;53956;52.442;13.284;2022-11-11T14:51:50;6.70;;;3.87;;
18125;SDS011;53956;52.442;13.284;2022-11-11T14:57:49;6.50;;;3.60;;
18125;SDS011;53956;52.442;13.284;2022-11-11T15:00:45;7.37;;;3.93;;
18125;SDS011;53956;52.442;13.284;2022-11-11T15:03:34;7.60;;;4.10;;
18125;SDS011;53956;52.442;13.284;2022-11-11T15:06:24;8.67;;;3.80;;
18125;SDS011;53956;52.442;13.284;2022-11-11T15:09:18;7.13;;;3.30;;
18125;SDS011;53956;52.442;13.284;2022-11-11T15:12:40;7.00;;;3.60;;
18125;SDS011;53956;52.442;13.284;2022-11-11T15:15:34;7.73;;;3.97;;
18125;SDS011;53956;52.442;13.284;2022-11-11T15:18:30;8.07;;;3.57;;
18125;SDS011;53956;52.442;13.284;2022-11-11T15:21:32;7.50;;;3.60;;
18125;SDS011;53956;52.442;13.284;2022-11-11T15:24:23;6.60;;;3.47;;
18125;SDS011;53956;52.442;13.284;2022-11-11T15:27:19;7.13;;;3.70;;
18125;SDS011;53956;52.442;13.284;2022-11-11T15:30:12;7.53;;;3.70;;
18125;SDS011;53956;52.442;13.284;2022-11-11T15:33:01;9.50;;;3.83;;
18125;SDS011;53956;52.442;13.284;2022-11-11T15:35:51;6.83;;;3.73;;
18125;SDS011;53956;52.442;13.284;2022-11-11T15:38:47;8.63;;;3.90;;
18125;SDS011;53956;52.442;13.284;2022-11-11T15:41:35;7.73;;;3.70;;
18125;SDS011;53956;52.442;13.284;2022-11-11T15:44:24;7.57;;;4.00;;
18125;SDS011;53956;52.442;13.284;2022-11-11T15:47:11;11.93;;;4.20;;
18125;SDS011;53956;52.442;13.284;2022-11-11T15:49:58;7.40;;;3.90;;
18125;SDS011;53956;52.442;13.284;2022-11-11T15:52:44;8.57;;;4.20;;
18125;SDS011;53956;52.442;13.284;2022-11-11T15:55:31;6.23;;;3.87;;
18125;SDS011;53956;52.442;13.284;2022-11-11T15:58:24;8.20;;;4.40;;
18125;SDS011;53956;52.442;13.284;2022-11-11T16:01:10;9.23;;;3.77;;
18125;SDS011;53956;52.442;13.284;2022-11-11T16:03:57;6.40;;;3.87;;
18125;SDS011;53956;52.442;13.284;2022-11-11T16:06:42;5.90;;;3.80;;
18125;SDS011;53956;52.442;13.284;2022-11-11T16:09:29;5.70;;;3.60;;
18125;SDS011;53956;52.442;13.284;2022-11-11T16:12:17;7.03;;;4.20;;
18125;SDS011;53956;52.442;13.284;2022-11-11T16:15:08;9.33;;;4.17;;
18125;SDS011;53956;52.442;13.284;2022-11-11T16:17:54;7.80;;;4.30;;
18125;SDS011;53956;52.442;13.284;2022-11-11T16:20:47;9.33;;;4.20;;
18125;SDS011;53956;52.442;13.284;2022-11-11T16:23:36;10.87;;;5.33;;
18125;SDS011;53956;52.442;13.284;2022-11-11T16:26:23;8.80;;;4.50;;
18125;SDS011;53956;52.442;13.284;2022-11-11T16:29:12;9.67;;;4.77;;
18125;SDS011;53956;52.442;13.284;2022-11-11T16:31:59;9.17;;;4.40;;
18125;SDS011;53956;52.442;13.284;2022-11-11T16:34:45;12.50;;;5.07;;
18125;SDS011;53956;52.442;13.284;2022-11-11T16:40:39;9.90;;;5.20;;
18125;SDS011;53956;52.442;13.284;2022-11-11T16:43:26;8.07;;;5.10;;
18125;SDS011;53956;52.442;13.284;2022-11-11T16:46:14;11.13;;;5.30;;
18125;SDS011;53956;52.442;13.284;2022-11-11T16:49:21;11.33;;;5.67;;
18125;SDS011;53956;52.442;13.284;2022-11-11T16:52:11;10.77;;;5.70;;
18125;SDS011;53956;52.442;13.284;2022-11-11T16:54:59;7.40;;;5.57;;
18125;SDS011;53956;52.442;13.284;2022-11-11T16:57:44;9.73;;;5.87;;
18125;SDS011;53956;52.442;13.284;2022-11-11T17:00:31;8.50;;;5.50;;
18125;SDS011;53956;52.442;13.284;2022-11-11T17:03:19;9.67;;;5.50;;
18125;SDS011;53956;52.442;13.284;2022-11-11T17:06:08;10.50;;;5.77;;